TAF and METAR

Could not understand the following METAR

YRMD 280500Z AUTO 26009KT 230V290 9999 // NCD 33/00 Q1012

TAF for Richmond Airport

TAF YRMD 271801Z 2720/2808 15008KT CAVOK FM280200 22012KT CAVOK
Report created 27. okt 19:01

between 27. okt 21:00 - 28. okt 09:00

wind 8 knots from SSE (150°) Clear sky

From 28. okt 03:00

wind 12 knots from SW (220°) Clear sky
Richmond Airport in Australia at 207m

Latest 5 airports